sensor_id;sensor_type;location;lat;lon;timestamp;P1;durP1;ratioP1;P2;durP2;ratioP2
78774;SDS011;68119;43.398;3.676;2024-03-02T00:01:05;16.15;;;3.30;;
78774;SDS011;68119;43.398;3.676;2024-03-02T00:03:37;14.63;;;3.28;;
78774;SDS011;68119;43.398;3.676;2024-03-02T00:06:04;11.32;;;3.00;;
78774;SDS011;68119;43.398;3.676;2024-03-02T00:08:30;17.00;;;3.50;;
78774;SDS011;68119;43.398;3.676;2024-03-02T00:10:57;15.38;;;3.33;;
78774;SDS011;68119;43.398;3.676;2024-03-02T00:13:24;14.63;;;3.90;;
78774;SDS011;68119;43.398;3.676;2024-03-02T00:15:54;15.55;;;3.72;;
78774;SDS011;68119;43.398;3.676;2024-03-02T00:18:24;14.38;;;3.40;;
78774;SDS011;68119;43.398;3.676;2024-03-02T00:20:54;19.63;;;3.63;;
78774;SDS011;68119;43.398;3.676;2024-03-02T00:23:24;17.88;;;3.70;;
78774;SDS011;68119;43.398;3.676;2024-03-02T00:26:02;22.70;;;4.40;;
78774;SDS011;68119;43.398;3.676;2024-03-02T00:28:35;12.25;;;2.88;;
78774;SDS011;68119;43.398;3.676;2024-03-02T00:31:05;15.50;;;3.42;;
78774;SDS011;68119;43.398;3.676;2024-03-02T00:33:37;14.98;;;3.30;;
78774;SDS011;68119;43.398;3.676;2024-03-02T00:36:08;19.40;;;3.78;;
78774;SDS011;68119;43.398;3.676;2024-03-02T00:38:44;18.05;;;4.18;;
78774;SDS011;68119;43.398;3.676;2024-03-02T00:41:15;17.05;;;3.65;;
78774;SDS011;68119;43.398;3.676;2024-03-02T00:43:50;22.33;;;3.85;;
78774;SDS011;68119;43.398;3.676;2024-03-02T00:46:18;21.40;;;4.25;;
78774;SDS011;68119;43.398;3.676;2024-03-02T00:48:58;16.15;;;4.13;;
78774;SDS011;68119;43.398;3.676;2024-03-02T00:51:29;21.85;;;3.97;;
78774;SDS011;68119;43.398;3.676;2024-03-02T00:53:59;21.00;;;4.03;;
78774;SDS011;68119;43.398;3.676;2024-03-02T00:56:29;20.23;;;4.47;;
78774;SDS011;68119;43.398;3.676;2024-03-02T00:58:55;27.45;;;4.43;;
78774;SDS011;68119;43.398;3.676;2024-03-02T01:01:25;18.13;;;3.63;;
78774;SDS011;68119;43.398;3.676;2024-03-02T01:03:54;12.45;;;3.85;;
78774;SDS011;68119;43.398;3.676;2024-03-02T01:06:20;21.10;;;4.53;;
78774;SDS011;68119;43.398;3.676;2024-03-02T01:08:47;47.08;;;5.55;;
78774;SDS011;68119;43.398;3.676;2024-03-02T01:11:16;15.75;;;3.10;;
78774;SDS011;68119;43.398;3.676;2024-03-02T01:13:43;19.40;;;4.32;;
78774;SDS011;68119;43.398;3.676;2024-03-02T01:16:12;29.83;;;4.15;;
78774;SDS011;68119;43.398;3.676;2024-03-02T01:18:41;25.45;;;4.60;;
78774;SDS011;68119;43.398;3.676;2024-03-02T01:21:08;26.13;;;4.72;;
78774;SDS011;68119;43.398;3.676;2024-03-02T01:23:34;22.80;;;4.57;;
78774;SDS011;68119;43.398;3.676;2024-03-02T01:26:00;26.17;;;4.13;;
78774;SDS011;68119;43.398;3.676;2024-03-02T01:28:33;17.77;;;4.30;;
78774;SDS011;68119;43.398;3.676;2024-03-02T01:31:00;19.27;;;4.30;;
78774;SDS011;68119;43.398;3.676;2024-03-02T01:33:27;22.90;;;4.40;;
78774;SDS011;68119;43.398;3.676;2024-03-02T01:35:59;17.80;;;3.40;;
78774;SDS011;68119;43.398;3.676;2024-03-02T01:38:25;18.40;;;3.70;;
78774;SDS011;68119;43.398;3.676;2024-03-02T01:40:57;21.17;;;4.32;;
78774;SDS011;68119;43.398;3.676;2024-03-02T01:43:26;36.47;;;4.53;;
78774;SDS011;68119;43.398;3.676;2024-03-02T01:45:55;18.10;;;3.60;;
78774;SDS011;68119;43.398;3.676;2024-03-02T01:48:22;23.63;;;3.83;;
78774;SDS011;68119;43.398;3.676;2024-03-02T01:50:53;17.85;;;3.63;;
78774;SDS011;68119;43.398;3.676;2024-03-02T01:53:20;18.65;;;4.03;;
78774;SDS011;68119;43.398;3.676;2024-03-02T01:55:47;17.45;;;3.60;;
78774;SDS011;68119;43.398;3.676;2024-03-02T01:58:16;19.38;;;3.33;;
78774;SDS011;68119;43.398;3.676;2024-03-02T02:00:45;21.00;;;4.80;;
78774;SDS011;68119;43.398;3.676;2024-03-02T02:03:14;23.05;;;4.65;;
78774;SDS011;68119;43.398;3.676;2024-03-02T02:05:43;20.70;;;3.95;;
78774;SDS011;68119;43.398;3.676;2024-03-02T02:08:10;19.95;;;4.20;;
78774;SDS011;68119;43.398;3.676;2024-03-02T02:10:36;22.15;;;4.15;;
78774;SDS011;68119;43.398;3.676;2024-03-02T02:13:05;15.60;;;3.55;;
78774;SDS011;68119;43.398;3.676;2024-03-02T02:15:34;22.30;;;3.67;;
78774;SDS011;68119;43.398;3.676;2024-03-02T02:18:01;14.18;;;3.78;;
78774;SDS011;68119;43.398;3.676;2024-03-02T02:20:29;17.27;;;3.45;;
78774;SDS011;68119;43.398;3.676;2024-03-02T02:25:24;15.75;;;3.33;;
78774;SDS011;68119;43.398;3.676;2024-03-02T02:27:51;16.77;;;3.78;;
78774;SDS011;68119;43.398;3.676;2024-03-02T02:30:27;15.85;;;3.38;;
78774;SDS011;68119;43.398;3.676;2024-03-02T02:32:56;17.65;;;3.28;;
78774;SDS011;68119;43.398;3.676;2024-03-02T02:35:23;14.02;;;3.58;;
78774;SDS011;68119;43.398;3.676;2024-03-02T02:37:53;13.68;;;3.53;;
78774;SDS011;68119;43.398;3.676;2024-03-02T02:40:26;15.52;;;4.13;;
78774;SDS011;68119;43.398;3.676;2024-03-02T02:42:58;14.77;;;3.50;;
78774;SDS011;68119;43.398;3.676;2024-03-02T02:45:30;20.92;;;4.28;;
78774;SDS011;68119;43.398;3.676;2024-03-02T02:47:59;13.13;;;2.90;;
78774;SDS011;68119;43.398;3.676;2024-03-02T02:50:30;16.92;;;4.00;;
78774;SDS011;68119;43.398;3.676;2024-03-02T02:52:59;13.00;;;3.35;;
78774;SDS011;68119;43.398;3.676;2024-03-02T02:55:26;16.30;;;3.80;;
78774;SDS011;68119;43.398;3.676;2024-03-02T02:57:57;12.95;;;3.25;;
78774;SDS011;68119;43.398;3.676;2024-03-02T03:00:24;24.02;;;5.03;;
78774;SDS011;68119;43.398;3.676;2024-03-02T03:02:53;25.38;;;5.00;;
78774;SDS011;68119;43.398;3.676;2024-03-02T03:05:21;21.55;;;4.32;;
78774;SDS011;68119;43.398;3.676;2024-03-02T03:07:50;18.45;;;3.85;;
78774;SDS011;68119;43.398;3.676;2024-03-02T03:10:16;25.67;;;4.03;;
78774;SDS011;68119;43.398;3.676;2024-03-02T03:12:45;18.52;;;3.22;;
78774;SDS011;68119;43.398;3.676;2024-03-02T03:15:17;17.65;;;3.15;;
78774;SDS011;68119;43.398;3.676;2024-03-02T03:17:44;19.60;;;4.32;;
78774;SDS011;68119;43.398;3.676;2024-03-02T03:20:12;18.23;;;3.80;;
78774;SDS011;68119;43.398;3.676;2024-03-02T03:22:40;17.50;;;3.42;;
78774;SDS011;68119;43.398;3.676;2024-03-02T03:25:06;20.50;;;4.07;;
78774;SDS011;68119;43.398;3.676;2024-03-02T03:27:36;14.43;;;3.50;;
78774;SDS011;68119;43.398;3.676;2024-03-02T03:30:08;20.83;;;4.00;;
78774;SDS011;68119;43.398;3.676;2024-03-02T03:32:37;23.70;;;4.15;;
78774;SDS011;68119;43.398;3.676;2024-03-02T03:35:07;19.67;;;3.95;;
78774;SDS011;68119;43.398;3.676;2024-03-02T03:37:34;23.48;;;3.58;;
78774;SDS011;68119;43.398;3.676;2024-03-02T03:40:03;21.27;;;3.75;;
78774;SDS011;68119;43.398;3.676;2024-03-02T03:42:38;27.50;;;3.88;;
78774;SDS011;68119;43.398;3.676;2024-03-02T03:45:07;23.48;;;4.25;;
78774;SDS011;68119;43.398;3.676;2024-03-02T03:47:39;17.10;;;3.70;;
78774;SDS011;68119;43.398;3.676;2024-03-02T03:50:05;24.83;;;3.97;;
78774;SDS011;68119;43.398;3.676;2024-03-02T03:52:35;17.15;;;4.10;;
78774;SDS011;68119;43.398;3.676;2024-03-02T03:55:01;23.08;;;4.47;;
78774;SDS011;68119;43.398;3.676;2024-03-02T03:57:28;27.05;;;4.40;;
78774;SDS011;68119;43.398;3.676;2024-03-02T03:59:57;20.90;;;4.07;;
78774;SDS011;68119;43.398;3.676;2024-03-02T04:02:26;19.65;;;3.33;;
78774;SDS011;68119;43.398;3.676;2024-03-02T04:04:53;13.63;;;3.28;;
78774;SDS011;68119;43.398;3.676;2024-03-02T04:07:25;20.55;;;4.32;;
78774;SDS011;68119;43.398;3.676;2024-03-02T04:09:54;31.85;;;4.68;;
78774;SDS011;68119;43.398;3.676;2024-03-02T04:12:21;28.10;;;4.47;;
78774;SDS011;68119;43.398;3.676;2024-03-02T04:14:50;21.63;;;4.10;;
78774;SDS011;68119;43.398;3.676;2024-03-02T04:17:22;21.70;;;4.45;;
78774;SDS011;68119;43.398;3.676;2024-03-02T04:19:48;20.27;;;4.28;;
78774;SDS011;68119;43.398;3.676;2024-03-02T04:22:17;13.82;;;3.40;;
78774;SDS011;68119;43.398;3.676;2024-03-02T04:24:49;22.50;;;4.10;;
78774;SDS011;68119;43.398;3.676;2024-03-02T04:27:24;22.73;;;4.03;;
78774;SDS011;68119;43.398;3.676;2024-03-02T04:29:55;19.17;;;3.95;;
78774;SDS011;68119;43.398;3.676;2024-03-02T04:32:25;19.08;;;3.50;;
78774;SDS011;68119;43.398;3.676;2024-03-02T04:34:55;25.10;;;3.70;;
78774;SDS011;68119;43.398;3.676;2024-03-02T04:37:26;16.48;;;3.72;;
78774;SDS011;68119;43.398;3.676;2024-03-02T04:39:53;15.88;;;3.03;;
78774;SDS011;68119;43.398;3.676;2024-03-02T04:42:21;19.33;;;3.85;;
78774;SDS011;68119;43.398;3.676;2024-03-02T04:44:50;20.80;;;3.35;;
78774;SDS011;68119;43.398;3.676;2024-03-02T04:47:19;27.58;;;4.60;;
78774;SDS011;68119;43.398;3.676;2024-03-02T04:49:50;23.08;;;4.05;;
78774;SDS011;68119;43.398;3.676;2024-03-02T04:52:19;22.20;;;3.55;;
78774;SDS011;68119;43.398;3.676;2024-03-02T04:54:48;18.67;;;3.53;;
78774;SDS011;68119;43.398;3.676;2024-03-02T04:57:33;18.33;;;4.43;;
78774;SDS011;68119;43.398;3.676;2024-03-02T05:00:05;21.80;;;3.42;;
78774;SDS011;68119;43.398;3.676;2024-03-02T05:02:34;21.27;;;4.82;;
78774;SDS011;68119;43.398;3.676;2024-03-02T05:05:03;17.17;;;3.50;;
78774;SDS011;68119;43.398;3.676;2024-03-02T05:07:35;15.40;;;3.90;;
78774;SDS011;68119;43.398;3.676;2024-03-02T05:10:04;18.92;;;4.30;;
78774;SDS011;68119;43.398;3.676;2024-03-02T05:12:30;20.85;;;4.45;;
78774;SDS011;68119;43.398;3.676;2024-03-02T05:15:13;14.35;;;4.32;;
78774;SDS011;68119;43.398;3.676;2024-03-02T05:17:40;21.60;;;4.35;;
78774;SDS011;68119;43.398;3.676;2024-03-02T05:20:10;16.42;;;4.65;;
78774;SDS011;68119;43.398;3.676;2024-03-02T05:22:37;23.20;;;4.68;;
78774;SDS011;68119;43.398;3.676;2024-03-02T05:25:04;14.00;;;3.95;;
78774;SDS011;68119;43.398;3.676;2024-03-02T05:27:41;23.95;;;4.40;;
78774;SDS011;68119;43.398;3.676;2024-03-02T05:30:10;14.38;;;4.13;;
78774;SDS011;68119;43.398;3.676;2024-03-02T05:32:37;13.30;;;4.00;;
78774;SDS011;68119;43.398;3.676;2024-03-02T05:35:06;18.63;;;5.13;;
78774;SDS011;68119;43.398;3.676;2024-03-02T05:40:04;13.38;;;4.07;;
78774;SDS011;68119;43.398;3.676;2024-03-02T05:42:31;19.63;;;4.68;;
78774;SDS011;68119;43.398;3.676;2024-03-02T05:45:00;15.95;;;4.43;;
78774;SDS011;68119;43.398;3.676;2024-03-02T05:47:27;20.02;;;4.90;;
78774;SDS011;68119;43.398;3.676;2024-03-02T05:49:56;12.15;;;4.38;;
78774;SDS011;68119;43.398;3.676;2024-03-02T05:52:25;17.25;;;4.30;;
78774;SDS011;68119;43.398;3.676;2024-03-02T05:54:55;16.10;;;4.72;;
78774;SDS011;68119;43.398;3.676;2024-03-02T05:57:24;16.52;;;5.10;;
78774;SDS011;68119;43.398;3.676;2024-03-02T06:00:09;19.00;;;4.68;;
78774;SDS011;68119;43.398;3.676;2024-03-02T06:02:39;18.25;;;5.03;;
78774;SDS011;68119;43.398;3.676;2024-03-02T06:05:06;20.90;;;5.18;;
78774;SDS011;68119;43.398;3.676;2024-03-02T06:07:35;20.45;;;4.90;;
78774;SDS011;68119;43.398;3.676;2024-03-02T06:10:05;23.30;;;5.28;;
78774;SDS011;68119;43.398;3.676;2024-03-02T06:12:34;14.40;;;4.88;;
78774;SDS011;68119;43.398;3.676;2024-03-02T06:15:00;16.27;;;4.07;;
78774;SDS011;68119;43.398;3.676;2024-03-02T06:17:27;13.63;;;4.40;;
78774;SDS011;68119;43.398;3.676;2024-03-02T06:19:56;15.10;;;4.18;;
78774;SDS011;68119;43.398;3.676;2024-03-02T06:22:22;11.93;;;4.60;;
78774;SDS011;68119;43.398;3.676;2024-03-02T06:24:50;14.00;;;4.25;;
78774;SDS011;68119;43.398;3.676;2024-03-02T06:27:17;17.63;;;4.20;;
78774;SDS011;68119;43.398;3.676;2024-03-02T06:29:43;15.25;;;4.35;;
78774;SDS011;68119;43.398;3.676;2024-03-02T06:32:10;19.23;;;4.78;;
78774;SDS011;68119;43.398;3.676;2024-03-02T06:34:41;16.67;;;5.13;;
78774;SDS011;68119;43.398;3.676;2024-03-02T06:37:11;15.25;;;5.03;;
78774;SDS011;68119;43.398;3.676;2024-03-02T06:39:41;17.52;;;5.00;;
78774;SDS011;68119;43.398;3.676;2024-03-02T06:42:12;21.55;;;5.35;;
78774;SDS011;68119;43.398;3.676;2024-03-02T06:44:42;20.30;;;5.18;;
78774;SDS011;68119;43.398;3.676;2024-03-02T06:47:11;18.20;;;4.40;;
78774;SDS011;68119;43.398;3.676;2024-03-02T06:49:41;19.35;;;4.65;;
78774;SDS011;68119;43.398;3.676;2024-03-02T06:52:10;17.45;;;4.60;;
78774;SDS011;68119;43.398;3.676;2024-03-02T06:54:37;23.95;;;4.88;;
78774;SDS011;68119;43.398;3.676;2024-03-02T06:57:16;19.17;;;5.03;;
78774;SDS011;68119;43.398;3.676;2024-03-02T06:59:50;21.13;;;5.03;;
78774;SDS011;68119;43.398;3.676;2024-03-02T07:02:19;20.05;;;5.05;;
78774;SDS011;68119;43.398;3.676;2024-03-02T07:04:48;17.40;;;5.35;;
78774;SDS011;68119;43.398;3.676;2024-03-02T07:07:21;20.63;;;4.93;;
78774;SDS011;68119;43.398;3.676;2024-03-02T07:09:48;23.02;;;4.88;;
78774;SDS011;68119;43.398;3.676;2024-03-02T07:12:18;22.17;;;4.95;;
78774;SDS011;68119;43.398;3.676;2024-03-02T07:14:44;30.63;;;5.50;;
78774;SDS011;68119;43.398;3.676;2024-03-02T07:17:29;28.40;;;5.93;;
78774;SDS011;68119;43.398;3.676;2024-03-02T07:20:00;29.23;;;5.70;;
78774;SDS011;68119;43.398;3.676;2024-03-02T07:22:27;24.45;;;4.82;;
78774;SDS011;68119;43.398;3.676;2024-03-02T07:24:53;36.05;;;6.05;;
78774;SDS011;68119;43.398;3.676;2024-03-02T07:27:22;34.67;;;6.55;;
78774;SDS011;68119;43.398;3.676;2024-03-02T07:29:51;28.98;;;5.55;;
78774;SDS011;68119;43.398;3.676;2024-03-02T07:32:24;26.50;;;5.07;;
78774;SDS011;68119;43.398;3.676;2024-03-02T07:34:52;22.67;;;5.10;;
78774;SDS011;68119;43.398;3.676;2024-03-02T07:37:27;27.95;;;4.88;;
78774;SDS011;68119;43.398;3.676;2024-03-02T07:39:56;38.38;;;5.22;;
78774;SDS011;68119;43.398;3.676;2024-03-02T07:42:25;27.92;;;4.65;;
78774;SDS011;68119;43.398;3.676;2024-03-02T07:44:52;31.58;;;5.50;;
78774;SDS011;68119;43.398;3.676;2024-03-02T07:47:21;29.30;;;6.45;;
78774;SDS011;68119;43.398;3.676;2024-03-02T07:49:53;29.02;;;6.28;;
78774;SDS011;68119;43.398;3.676;2024-03-02T07:52:23;32.63;;;5.63;;
78774;SDS011;68119;43.398;3.676;2024-03-02T07:54:52;27.65;;;5.65;;
78774;SDS011;68119;43.398;3.676;2024-03-02T07:57:23;28.10;;;5.57;;
78774;SDS011;68119;43.398;3.676;2024-03-02T07:59:50;31.23;;;6.22;;
78774;SDS011;68119;43.398;3.676;2024-03-02T08:02:19;35.70;;;6.40;;
78774;SDS011;68119;43.398;3.676;2024-03-02T08:04:46;31.23;;;6.90;;
78774;SDS011;68119;43.398;3.676;2024-03-02T08:07:12;32.42;;;6.82;;
78774;SDS011;68119;43.398;3.676;2024-03-02T08:09:41;32.50;;;6.32;;
78774;SDS011;68119;43.398;3.676;2024-03-02T08:12:07;30.85;;;6.22;;
78774;SDS011;68119;43.398;3.676;2024-03-02T08:14:34;32.67;;;6.28;;
78774;SDS011;68119;43.398;3.676;2024-03-02T08:17:01;25.98;;;6.82;;
78774;SDS011;68119;43.398;3.676;2024-03-02T08:19:36;24.08;;;5.75;;
78774;SDS011;68119;43.398;3.676;2024-03-02T08:22:03;18.73;;;4.97;;
78774;SDS011;68119;43.398;3.676;2024-03-02T08:24:34;14.75;;;4.13;;
78774;SDS011;68119;43.398;3.676;2024-03-02T08:27:16;13.80;;;4.38;;
78774;SDS011;68119;43.398;3.676;2024-03-02T08:29:45;21.15;;;4.63;;
78774;SDS011;68119;43.398;3.676;2024-03-02T08:32:12;30.50;;;4.80;;
78774;SDS011;68119;43.398;3.676;2024-03-02T08:34:42;11.93;;;3.70;;
78774;SDS011;68119;43.398;3.676;2024-03-02T08:37:11;14.40;;;3.47;;
78774;SDS011;68119;43.398;3.676;2024-03-02T08:39:40;10.98;;;3.33;;
78774;SDS011;68119;43.398;3.676;2024-03-02T08:42:06;8.95;;;3.30;;
78774;SDS011;68119;43.398;3.676;2024-03-02T08:44:39;9.07;;;3.33;;
78774;SDS011;68119;43.398;3.676;2024-03-02T08:47:05;17.90;;;4.28;;
78774;SDS011;68119;43.398;3.676;2024-03-02T08:49:31;12.15;;;3.13;;
78774;SDS011;68119;43.398;3.676;2024-03-02T08:52:00;13.73;;;4.20;;
78774;SDS011;68119;43.398;3.676;2024-03-02T08:54:27;8.05;;;3.05;;
78774;SDS011;68119;43.398;3.676;2024-03-02T08:56:57;12.02;;;3.03;;
78774;SDS011;68119;43.398;3.676;2024-03-02T08:59:24;10.98;;;3.15;;
78774;SDS011;68119;43.398;3.676;2024-03-02T09:01:55;14.30;;;3.20;;
78774;SDS011;68119;43.398;3.676;2024-03-02T09:04:24;11.07;;;2.97;;
78774;SDS011;68119;43.398;3.676;2024-03-02T09:06:54;13.88;;;3.08;;
78774;SDS011;68119;43.398;3.676;2024-03-02T09:09:28;13.48;;;3.28;;
78774;SDS011;68119;43.398;3.676;2024-03-02T09:11:57;9.20;;;3.17;;
78774;SDS011;68119;43.398;3.676;2024-03-02T09:14:26;9.90;;;3.40;;
78774;SDS011;68119;43.398;3.676;2024-03-02T09:16:53;10.20;;;2.75;;
78774;SDS011;68119;43.398;3.676;2024-03-02T09:19:22;8.73;;;3.10;;
78774;SDS011;68119;43.398;3.676;2024-03-02T09:21:51;8.50;;;2.75;;
78774;SDS011;68119;43.398;3.676;2024-03-02T09:26:48;7.13;;;2.88;;
78774;SDS011;68119;43.398;3.676;2024-03-02T09:29:15;11.60;;;3.25;;
78774;SDS011;68119;43.398;3.676;2024-03-02T09:31:42;7.90;;;3.13;;
78774;SDS011;68119;43.398;3.676;2024-03-02T09:34:14;8.60;;;3.08;;
78774;SDS011;68119;43.398;3.676;2024-03-02T09:36:44;9.65;;;3.00;;
78774;SDS011;68119;43.398;3.676;2024-03-02T09:39:10;7.60;;;2.60;;
78774;SDS011;68119;43.398;3.676;2024-03-02T09:41:37;8.02;;;3.20;;
78774;SDS011;68119;43.398;3.676;2024-03-02T09:44:06;8.15;;;2.95;;
78774;SDS011;68119;43.398;3.676;2024-03-02T09:46:33;8.82;;;3.22;;
78774;SDS011;68119;43.398;3.676;2024-03-02T09:49:04;9.50;;;3.42;;
78774;SDS011;68119;43.398;3.676;2024-03-02T09:51:31;8.77;;;3.40;;
78774;SDS011;68119;43.398;3.676;2024-03-02T09:54:00;11.25;;;3.55;;
78774;SDS011;68119;43.398;3.676;2024-03-02T09:56:32;15.00;;;3.72;;
78774;SDS011;68119;43.398;3.676;2024-03-02T09:59:00;14.07;;;3.58;;
78774;SDS011;68119;43.398;3.676;2024-03-02T10:01:27;10.32;;;3.83;;
78774;SDS011;68119;43.398;3.676;2024-03-02T10:03:53;7.82;;;3.25;;
78774;SDS011;68119;43.398;3.676;2024-03-02T10:06:23;9.80;;;3.33;;
78774;SDS011;68119;43.398;3.676;2024-03-02T10:08:50;9.10;;;3.58;;
78774;SDS011;68119;43.398;3.676;2024-03-02T10:11:34;11.45;;;3.22;;
78774;SDS011;68119;43.398;3.676;2024-03-02T10:14:09;13.75;;;3.42;;
78774;SDS011;68119;43.398;3.676;2024-03-02T10:16:36;8.75;;;3.78;;
78774;SDS011;68119;43.398;3.676;2024-03-02T10:19:19;7.65;;;3.00;;
78774;SDS011;68119;43.398;3.676;2024-03-02T10:21:49;13.80;;;3.63;;
78774;SDS011;68119;43.398;3.676;2024-03-02T10:24:15;15.52;;;3.30;;
78774;SDS011;68119;43.398;3.676;2024-03-02T10:26:42;10.88;;;3.40;;
78774;SDS011;68119;43.398;3.676;2024-03-02T10:29:09;6.80;;;2.85;;
78774;SDS011;68119;43.398;3.676;2024-03-02T10:31:55;6.15;;;3.20;;
78774;SDS011;68119;43.398;3.676;2024-03-02T10:34:21;10.75;;;3.17;;
78774;SDS011;68119;43.398;3.676;2024-03-02T10:36:48;11.55;;;3.80;;
78774;SDS011;68119;43.398;3.676;2024-03-02T10:39:17;12.15;;;3.83;;
78774;SDS011;68119;43.398;3.676;2024-03-02T10:41:46;8.30;;;3.03;;
78774;SDS011;68119;43.398;3.676;2024-03-02T10:44:18;18.65;;;3.75;;
78774;SDS011;68119;43.398;3.676;2024-03-02T10:46:45;10.05;;;3.17;;
78774;SDS011;68119;43.398;3.676;2024-03-02T10:49:19;8.35;;;3.38;;
78774;SDS011;68119;43.398;3.676;2024-03-02T10:54:13;8.48;;;3.25;;
78774;SDS011;68119;43.398;3.676;2024-03-02T10:56:46;9.90;;;3.00;;
78774;SDS011;68119;43.398;3.676;2024-03-02T11:01:56;10.20;;;3.10;;
78774;SDS011;68119;43.398;3.676;2024-03-02T11:04:31;12.40;;;3.25;;
78774;SDS011;68119;43.398;3.676;2024-03-02T11:09:50;15.00;;;3.75;;
78774;SDS011;68119;43.398;3.676;2024-03-02T11:12:23;7.70;;;2.95;;
78774;SDS011;68119;43.398;3.676;2024-03-02T11:14:54;10.55;;;3.10;;
78774;SDS011;68119;43.398;3.676;2024-03-02T11:17:27;6.13;;;3.20;;
78774;SDS011;68119;43.398;3.676;2024-03-02T11:19:56;11.60;;;3.90;;
78774;SDS011;68119;43.398;3.676;2024-03-02T11:25:31;9.70;;;3.28;;
78774;SDS011;68119;43.398;3.676;2024-03-02T11:28:01;12.50;;;3.75;;
78774;SDS011;68119;43.398;3.676;2024-03-02T11:33:07;13.63;;;3.50;;
78774;SDS011;68119;43.398;3.676;2024-03-02T11:35:37;14.50;;;4.00;;
78774;SDS011;68119;43.398;3.676;2024-03-02T11:38:13;18.45;;;4.68;;
78774;SDS011;68119;43.398;3.676;2024-03-02T11:40:39;16.65;;;4.72;;
78774;SDS011;68119;43.398;3.676;2024-03-02T11:43:07;14.38;;;4.65;;
78774;SDS011;68119;43.398;3.676;2024-03-02T11:45:34;18.65;;;4.90;;
78774;SDS011;68119;43.398;3.676;2024-03-02T11:48:05;16.20;;;4.82;;
78774;SDS011;68119;43.398;3.676;2024-03-02T11:53:05;14.98;;;4.47;;
78774;SDS011;68119;43.398;3.676;2024-03-02T11:55:40;18.48;;;5.10;;
78774;SDS011;68119;43.398;3.676;2024-03-02T11:58:11;16.70;;;4.93;;
78774;SDS011;68119;43.398;3.676;2024-03-02T12:00:42;21.40;;;4.57;;
78774;SDS011;68119;43.398;3.676;2024-03-02T12:03:10;15.90;;;4.35;;
78774;SDS011;68119;43.398;3.676;2024-03-02T12:05:38;18.30;;;4.82;;
78774;SDS011;68119;43.398;3.676;2024-03-02T12:08:08;18.42;;;4.50;;
78774;SDS011;68119;43.398;3.676;2024-03-02T12:10:40;18.92;;;5.18;;
78774;SDS011;68119;43.398;3.676;2024-03-02T12:13:07;21.58;;;4.65;;
78774;SDS011;68119;43.398;3.676;2024-03-02T12:15:36;19.45;;;5.47;;
78774;SDS011;68119;43.398;3.676;2024-03-02T12:18:05;15.70;;;5.18;;
78774;SDS011;68119;43.398;3.676;2024-03-02T12:20:34;28.75;;;6.85;;
78774;SDS011;68119;43.398;3.676;2024-03-02T12:23:01;20.80;;;6.20;;
78774;SDS011;68119;43.398;3.676;2024-03-02T12:25:34;22.58;;;6.25;;
78774;SDS011;68119;43.398;3.676;2024-03-02T12:28:00;28.88;;;6.45;;
78774;SDS011;68119;43.398;3.676;2024-03-02T12:30:30;26.65;;;6.13;;
78774;SDS011;68119;43.398;3.676;2024-03-02T12:32:57;27.13;;;6.53;;
78774;SDS011;68119;43.398;3.676;2024-03-02T12:35:24;34.60;;;7.32;;
78774;SDS011;68119;43.398;3.676;2024-03-02T12:37:51;26.35;;;6.18;;
78774;SDS011;68119;43.398;3.676;2024-03-02T12:40:18;23.05;;;6.32;;
78774;SDS011;68119;43.398;3.676;2024-03-02T12:42:50;31.67;;;7.60;;
78774;SDS011;68119;43.398;3.676;2024-03-02T12:45:19;38.33;;;9.05;;
78774;SDS011;68119;43.398;3.676;2024-03-02T12:47:49;28.80;;;6.72;;
78774;SDS011;68119;43.398;3.676;2024-03-02T12:50:20;28.15;;;6.93;;
78774;SDS011;68119;43.398;3.676;2024-03-02T12:52:55;27.77;;;6.70;;
78774;SDS011;68119;43.398;3.676;2024-03-02T12:55:24;28.10;;;6.78;;
78774;SDS011;68119;43.398;3.676;2024-03-02T12:57:54;30.45;;;7.30;;
78774;SDS011;68119;43.398;3.676;2024-03-02T13:00:27;27.42;;;7.07;;
78774;SDS011;68119;43.398;3.676;2024-03-02T13:03:00;37.30;;;8.55;;
78774;SDS011;68119;43.398;3.676;2024-03-02T13:05:31;28.92;;;7.95;;
78774;SDS011;68119;43.398;3.676;2024-03-02T13:07:58;29.45;;;7.00;;
78774;SDS011;68119;43.398;3.676;2024-03-02T13:10:27;33.38;;;7.07;;
78774;SDS011;68119;43.398;3.676;2024-03-02T13:15:40;36.58;;;7.22;;
78774;SDS011;68119;43.398;3.676;2024-03-02T13:18:07;40.50;;;7.72;;
78774;SDS011;68119;43.398;3.676;2024-03-02T13:20:37;39.53;;;7.82;;
78774;SDS011;68119;43.398;3.676;2024-03-02T13:23:05;44.95;;;8.38;;
78774;SDS011;68119;43.398;3.676;2024-03-02T13:25:33;43.58;;;8.85;;
78774;SDS011;68119;43.398;3.676;2024-03-02T13:28:02;40.40;;;8.50;;
78774;SDS011;68119;43.398;3.676;2024-03-02T13:30:29;37.90;;;9.27;;
78774;SDS011;68119;43.398;3.676;2024-03-02T13:32:58;30.83;;;7.32;;
78774;SDS011;68119;43.398;3.676;2024-03-02T13:35:26;39.97;;;8.23;;
78774;SDS011;68119;43.398;3.676;2024-03-02T13:37:52;38.33;;;8.68;;
78774;SDS011;68119;43.398;3.676;2024-03-02T13:40:25;36.80;;;8.10;;
78774;SDS011;68119;43.398;3.676;2024-03-02T13:42:56;38.10;;;8.40;;
78774;SDS011;68119;43.398;3.676;2024-03-02T13:45:27;36.10;;;8.77;;
78774;SDS011;68119;43.398;3.676;2024-03-02T13:47:53;40.65;;;9.05;;
78774;SDS011;68119;43.398;3.676;2024-03-02T13:50:20;46.90;;;8.70;;
78774;SDS011;68119;43.398;3.676;2024-03-02T13:52:50;41.55;;;8.88;;
78774;SDS011;68119;43.398;3.676;2024-03-02T13:55:22;37.55;;;7.88;;
78774;SDS011;68119;43.398;3.676;2024-03-02T13:57:53;36.13;;;8.48;;
78774;SDS011;68119;43.398;3.676;2024-03-02T14:00:20;39.45;;;8.73;;
78774;SDS011;68119;43.398;3.676;2024-03-02T14:02:46;43.75;;;9.20;;
78774;SDS011;68119;43.398;3.676;2024-03-02T14:05:15;39.60;;;9.38;;
78774;SDS011;68119;43.398;3.676;2024-03-02T14:07:41;47.63;;;9.38;;
78774;SDS011;68119;43.398;3.676;2024-03-02T14:10:09;41.47;;;8.10;;
78774;SDS011;68119;43.398;3.676;2024-03-02T14:12:40;47.28;;;8.65;;
78774;SDS011;68119;43.398;3.676;2024-03-02T14:15:13;37.50;;;9.53;;
78774;SDS011;68119;43.398;3.676;2024-03-02T14:17:40;36.67;;;7.43;;
78774;SDS011;68119;43.398;3.676;2024-03-02T14:20:07;41.58;;;9.45;;
78774;SDS011;68119;43.398;3.676;2024-03-02T14:22:36;39.58;;;8.73;;
78774;SDS011;68119;43.398;3.676;2024-03-02T14:25:08;43.10;;;9.38;;
78774;SDS011;68119;43.398;3.676;2024-03-02T14:27:37;40.05;;;9.13;;
78774;SDS011;68119;43.398;3.676;2024-03-02T14:30:06;38.30;;;9.25;;
78774;SDS011;68119;43.398;3.676;2024-03-02T14:32:35;40.25;;;9.48;;
78774;SDS011;68119;43.398;3.676;2024-03-02T14:35:04;49.63;;;9.68;;
78774;SDS011;68119;43.398;3.676;2024-03-02T14:37:30;43.72;;;9.25;;
78774;SDS011;68119;43.398;3.676;2024-03-02T14:39:59;48.03;;;10.13;;
78774;SDS011;68119;43.398;3.676;2024-03-02T14:42:31;45.55;;;10.15;;
78774;SDS011;68119;43.398;3.676;2024-03-02T14:45:12;48.67;;;10.35;;
78774;SDS011;68119;43.398;3.676;2024-03-02T14:47:39;61.28;;;11.75;;
78774;SDS011;68119;43.398;3.676;2024-03-02T14:50:07;51.30;;;10.55;;
78774;SDS011;68119;43.398;3.676;2024-03-02T14:52:35;44.22;;;9.38;;
78774;SDS011;68119;43.398;3.676;2024-03-02T14:55:04;49.40;;;9.35;;
78774;SDS011;68119;43.398;3.676;2024-03-02T14:57:33;45.45;;;10.48;;
78774;SDS011;68119;43.398;3.676;2024-03-02T15:02:37;69.43;;;12.75;;
78774;SDS011;68119;43.398;3.676;2024-03-02T15:05:03;46.58;;;10.70;;
78774;SDS011;68119;43.398;3.676;2024-03-02T15:07:33;50.30;;;10.15;;
78774;SDS011;68119;43.398;3.676;2024-03-02T15:09:59;46.35;;;10.88;;
78774;SDS011;68119;43.398;3.676;2024-03-02T15:12:31;45.63;;;9.55;;
78774;SDS011;68119;43.398;3.676;2024-03-02T15:15:03;44.03;;;10.02;;
78774;SDS011;68119;43.398;3.676;2024-03-02T15:17:29;52.95;;;11.95;;